Time;durP1;ratioP1;P1;durP2;ratioP2;P2;SDS_P1;SDS_P2;PMS_P1;PMS_P2;Temp;Humidity;BMP_temperature;BMP_pressure;BME280_temperature;BME280_humidity;BME280_pressure;Samples;Min_cycle;Max_cycle;Signal;HPM_P1;HPM_P2
2023/09/23 00:02:13;;;;;;;1.50;0.40;;;;;;;12.69;91.21;99995.88;5113782;28;20062;-73
2023/09/23 00:05:20;;;;;;;4.97;0.68;;;;;;;12.74;91.08;99991.16;5113499;28;20084;-73
2023/09/23 00:08:23;;;;;;;2.67;0.20;;;;;;;12.54;92.39;99997.81;5113731;28;20050;-73
2023/09/23 00:11:27;;;;;;;3.42;0.35;;;;;;;12.65;91.77;100001.47;5113066;28;20113;-73
2023/09/23 00:14:30;;;;;;;4.53;0.95;;;;;;;12.71;91.70;100001.88;5112565;28;20391;-73
2023/09/23 00:17:37;;;;;;;;;;;;;;;12.72;92.02;99998.28;5113665;28;20089;-73
2023/09/23 00:20:44;;;;;;;3.88;0.40;;;;;;;12.82;91.47;100002.91;5113070;28;20386;-73
2023/09/23 00:23:52;;;;;;;1.92;0.30;;;;;;;12.85;91.35;100010.56;5113374;28;20059;-73
2023/09/23 00:26:59;;;;;;;2.03;0.32;;;;;;;12.50;93.65;100011.22;5112512;28;20105;-73
2023/09/23 00:30:04;;;;;;;5.07;0.50;;;;;;;12.75;93.18;100005.13;5113294;28;20050;-73
2023/09/23 00:33:10;;;;;;;5.25;0.60;;;;;;;12.74;92.91;100016.56;5112126;28;20049;-73
2023/09/23 00:36:14;;;;;;;1.70;0.43;;;;;;;12.85;92.04;100005.31;5113320;28;20100;-73
2023/09/23 00:39:17;;;;;;;1.15;0.20;;;;;;;12.58;90.57;100014.16;5112489;28;20038;-73
2023/09/23 00:42:26;;;;;;;12.70;1.02;;;;;;;12.40;91.08;100023.28;5112113;28;20046;-73
2023/09/23 00:45:30;;;;;;;1.25;0.20;;;;;;;12.63;92.17;100019.91;5112637;28;20120;-73
2023/09/23 00:48:36;;;;;;;;;;;;;;;12.41;91.58;100024.94;5112130;28;20039;-72
2023/09/23 00:51:42;;;;;;;1.70;0.35;;;;;;;12.28;92.59;100028.41;5111973;28;19919;-73
2023/09/23 00:54:49;;;;;;;3.85;0.40;;;;;;;12.07;92.84;100041.16;5112790;28;20425;-73
2023/09/23 00:57:55;;;;;;;1.45;0.30;;;;;;;12.23;89.75;100038.38;5111470;28;20419;-73
2023/09/23 01:01:10;;;;;;;3.08;0.45;;;;;;;12.31;90.44;100037.84;5111986;28;20046;-73
2023/09/23 01:04:14;;;;;;;1.55;0.30;;;;;;;12.30;89.60;100036.16;5112116;28;20162;-73
2023/09/23 01:07:18;;;;;;;4.10;0.45;;;;;;;12.20;88.73;100043.81;5112133;28;20093;-73
2023/09/23 01:10:21;;;;;;;;;;;;;;;12.26;89.42;100034.69;5113417;28;20122;-73
2023/09/23 01:13:29;;;;;;;1.75;0.30;;;;;;;12.54;91.74;100044.16;5112852;28;19968;-73
2023/09/23 01:16:33;;;;;;;2.70;0.60;;;;;;;12.72;91.54;100048.13;5112645;28;20518;-73
2023/09/23 01:19:42;;;;;;;1.60;0.40;;;;;;;12.54;89.65;100044.16;5112512;28;20506;-73
2023/09/23 01:23:15;;;;;;;5.03;0.95;;;;;;;12.85;89.53;100048.13;5113927;28;20043;-73
2023/09/23 01:26:27;;;;;;;1.48;0.52;;;;;;;12.94;90.02;100057.16;5115548;28;20050;-73
2023/09/23 01:29:33;;;;;;;3.78;0.30;;;;;;;12.54;88.32;100060.75;5116740;28;20167;-73
2023/09/23 01:32:46;;;;;;;1.50;0.40;;;;;;;12.52;86.76;100059.16;5116530;28;20104;-73
2023/09/23 01:35:50;;;;;;;3.25;0.45;;;;;;;12.40;85.91;100062.59;5116301;28;20043;-73
2023/09/23 01:38:54;;;;;;;1.08;0.30;;;;;;;12.50;86.32;100067.13;5115863;28;20729;-73
2023/09/23 01:41:57;;;;;;;1.50;0.38;;;;;;;12.44;87.83;100069.31;5116047;28;20047;-73
2023/09/23 01:45:04;;;;;;;2.00;0.60;;;;;;;12.55;89.05;100062.41;5116270;28;20046;-73
2023/09/23 01:48:07;;;;;;;1.58;0.50;;;;;;;12.52;89.76;100069.66;5115499;28;20057;-73
2023/09/23 01:51:16;;;;;;;3.30;0.40;;;;;;;12.25;89.03;100064.47;5116105;28;20123;-73
2023/09/23 01:54:23;;;;;;;2.55;0.55;;;;;;;12.41;88.61;100074.75;5115540;28;20120;-74
2023/09/23 01:57:26;;;;;;;2.33;0.45;;;;;;;12.45;88.50;100078.88;5116217;28;20590;-74
2023/09/23 02:00:32;;;;;;;3.38;0.30;;;;;;;12.19;87.37;100073.59;5115112;28;20058;-74
2023/09/23 02:03:41;;;;;;;3.72;0.52;;;;;;;12.22;88.88;100086.50;5126723;27;20047;-74
2023/09/23 02:06:46;;;;;;;2.13;0.60;;;;;;;12.24;86.30;100089.00;5114932;28;20131;-74
2023/09/23 02:09:50;;;;;;;2.53;0.52;;;;;;;12.13;89.35;100097.59;5115377;28;20046;-74
2023/09/23 02:12:53;;;;;;;5.55;0.93;;;;;;;11.97;89.13;100100.34;5115381;28;20058;-73
2023/09/23 02:15:58;;;;;;;1.00;0.20;;;;;;;12.15;89.00;100097.47;5114596;28;20505;-73
2023/09/23 02:19:03;;;;;;;1.33;0.40;;;;;;;12.13;88.65;100096.75;5114681;28;20100;-73
2023/09/23 02:22:08;;;;;;;2.17;0.63;;;;;;;12.06;89.40;100101.53;5115271;28;20103;-73
2023/09/23 02:25:12;;;;;;;3.78;0.70;;;;;;;12.22;89.14;100107.47;5114594;28;20529;-74
2023/09/23 02:28:18;;;;;;;4.03;0.60;;;;;;;12.19;89.29;100106.81;5115095;28;20042;-73
2023/09/23 02:31:21;;;;;;;2.67;0.60;;;;;;;12.26;88.99;100114.19;5115826;28;20097;-74
2023/09/23 02:34:25;;;;;;;1.30;0.40;;;;;;;12.17;89.98;100103.47;5114618;28;20510;-73
2023/09/23 02:37:29;;;;;;;;;;;;;;;12.19;89.58;100109.41;5116196;28;20062;-74
2023/09/23 02:40:34;;;;;;;3.80;0.82;;;;;;;12.13;90.00;100117.72;5115417;28;19964;-74
2023/09/23 02:43:37;;;;;;;3.92;0.70;;;;;;;12.17;89.52;100116.56;5114594;28;20042;-74
2023/09/23 02:46:41;;;;;;;4.97;0.63;;;;;;;12.10;89.29;100124.81;5115459;28;20112;-73
2023/09/23 02:50:03;;;;;;;1.05;0.30;;;;;;;12.00;89.53;100128.16;5115068;28;20127;-73
2023/09/23 02:53:32;;;;;;;4.25;0.50;;;;;;;11.99;89.46;100129.06;5114400;28;20046;-73
2023/09/23 03:00:40;;;;;;;5.38;0.65;;;;;;;11.93;89.60;100137.31;5115164;28;20392;-74
2023/09/23 03:03:46;;;;;;;2.80;0.52;;;;;;;11.81;89.97;100144.16;5112125;28;20574;-74
2023/09/23 03:07:01;;;;;;;4.40;0.93;;;;;;;11.75;90.11;100145.38;5112038;28;20126;-73
2023/09/23 03:10:13;;;;;;;3.83;1.10;;;;;;;11.75;89.87;100153.25;5112678;28;20089;-73
2023/09/23 03:13:18;;;;;;;3.83;0.77;;;;;;;11.63;90.84;100167.94;5071962;28;20046;-73
2023/09/23 03:16:30;;;;;;;3.90;0.70;;;;;;;11.61;90.01;100158.50;5072851;28;20050;-73
2023/09/23 03:19:34;;;;;;;7.18;0.93;;;;;;;11.50;91.65;100156.56;5073032;28;20091;-73
2023/09/23 03:22:39;;;;;;;3.05;0.80;;;;;;;11.57;90.85;100162.25;5073142;28;20586;-73
2023/09/23 03:25:46;;;;;;;7.50;1.05;;;;;;;11.57;90.05;100154.38;5073306;28;20132;-73
2023/09/23 03:28:50;;;;;;;2.72;0.80;;;;;;;11.63;89.62;100164.50;5073218;28;20086;-73
2023/09/23 03:31:53;;;;;;;6.78;1.13;;;;;;;11.62;90.20;100165.44;5073757;28;20416;-73
2023/09/23 03:34:56;;;;;;;5.18;1.35;;;;;;;11.69;89.70;100171.13;5073652;28;20040;-73
2023/09/23 03:38:00;;;;;;;4.97;1.30;;;;;;;11.70;90.16;100176.25;5072869;28;20106;-73
2023/09/23 03:41:24;;;;;;;3.72;1.20;;;;;;;11.77;89.84;100169.72;5072664;28;20093;-73
2023/09/23 03:45:34;;;;;;;;;;;;;;;;;;;;;
2023/09/23 03:49:20;;;;;;;4.10;1.23;;;;;;;11.65;91.28;100175.72;5073338;28;20040;-74
2023/09/23 03:52:24;;;;;;;8.63;1.60;;;;;;;11.84;90.87;100178.03;5072623;28;20458;-74
2023/09/23 03:55:32;;;;;;;5.32;1.30;;;;;;;11.88;90.59;100176.09;5073385;28;20110;-73
2023/09/23 03:58:38;;;;;;;7.35;1.42;;;;;;;11.84;91.10;100178.91;5073174;28;20101;-72
2023/09/23 04:01:41;;;;;;;5.10;1.50;;;;;;;11.84;91.16;100184.13;5084492;28;20098;-73
2023/09/23 04:04:49;;;;;;;4.35;1.30;;;;;;;11.86;91.33;100178.78;5073210;28;20128;-73
2023/09/23 04:07:52;;;;;;;6.28;1.60;;;;;;;11.88;91.17;100182.16;5071506;28;20173;-73
2023/09/23 04:10:56;;;;;;;5.75;1.15;;;;;;;11.83;91.20;100192.88;5077573;28;20138;-73
2023/09/23 04:14:01;;;;;;;4.25;0.93;;;;;;;11.83;90.57;100195.50;5113511;28;20050;-72
2023/09/23 04:17:06;;;;;;;6.65;1.40;;;;;;;11.78;90.82;100202.00;5112732;28;20047;-73
2023/09/23 04:20:14;;;;;;;5.40;1.05;;;;;;;11.81;90.76;100207.88;5113598;28;20088;-73
2023/09/23 04:23:18;;;;;;;7.78;1.02;;;;;;;11.81;90.73;100207.03;5113453;28;20078;-73
2023/09/23 04:26:24;;;;;;;5.75;0.90;;;;;;;11.88;90.84;100207.53;5113872;28;20058;-71
2023/09/23 04:29:30;;;;;;;4.15;0.77;;;;;;;11.86;90.83;100215.47;5113448;28;20039;-71
2023/09/23 04:32:34;;;;;;;4.03;1.40;;;;;;;11.82;91.36;100214.78;5113392;28;20042;-72
2023/09/23 04:35:40;;;;;;;5.28;1.77;;;;;;;11.84;91.87;100223.44;5113668;28;20047;-72
2023/09/23 04:38:47;;;;;;;3.50;0.90;;;;;;;11.91;91.48;100212.56;5113606;28;20086;-70
2023/09/23 04:41:50;;;;;;;4.05;1.42;;;;;;;11.93;91.84;100211.50;5113288;28;20403;-72
2023/09/23 04:44:54;;;;;;;2.70;1.00;;;;;;;12.03;91.36;100223.13;5112649;28;20086;-70
2023/09/23 04:48:01;;;;;;;6.15;1.38;;;;;;;12.03;91.45;100212.66;5112551;28;20085;-71
2023/09/23 04:51:08;;;;;;;4.38;1.25;;;;;;;12.09;91.66;100216.63;5112624;28;20050;-71
2023/09/23 04:54:12;;;;;;;3.97;1.25;;;;;;;12.06;92.40;100228.16;5112927;28;20403;-71
2023/09/23 04:57:16;;;;;;;4.07;1.13;;;;;;;12.10;92.35;100240.13;5114019;28;20074;-71
2023/09/23 05:00:20;;;;;;;9.07;1.00;;;;;;;12.09;92.29;100242.84;5117431;28;20097;-72
2023/09/23 05:03:24;;;;;;;8.02;1.20;;;;;;;12.16;91.85;100243.31;5116679;28;20442;-72
2023/09/23 05:06:28;;;;;;;6.57;1.75;;;;;;;12.05;92.96;100251.84;5117191;28;20465;-71
2023/09/23 05:09:31;;;;;;;3.92;1.30;;;;;;;12.12;92.72;100257.53;5117145;28;20042;-72
2023/09/23 05:12:35;;;;;;;;;;;;;;;12.07;92.98;100256.06;5116497;28;20086;-72
2023/09/23 05:15:38;;;;;;;3.42;0.90;;;;;;;11.94;93.50;100257.75;5114989;28;20007;-72
2023/09/23 05:18:41;;;;;;;6.82;1.20;;;;;;;11.89;94.23;100251.94;5115505;28;20123;-72
2023/09/23 05:21:45;;;;;;;;;;;;;;;11.89;94.30;100256.34;5123414;27;20123;-72
2023/09/23 05:24:50;;;;;;;8.18;0.93;;;;;;;11.75;95.45;100265.03;5116070;27;20403;-72
2023/09/23 05:27:54;;;;;;;7.03;1.23;;;;;;;11.67;95.75;100272.50;5115410;28;20050;-64
2023/09/23 05:30:59;;;;;;;4.28;0.88;;;;;;;11.64;95.60;100273.53;5115090;28;20043;-64
2023/09/23 05:34:03;;;;;;;6.85;1.30;;;;;;;11.71;95.61;100282.72;5122890;27;20061;-75
2023/09/23 05:37:12;;;;;;;6.55;1.48;;;;;;;11.81;94.69;100289.09;5125677;27;20057;-76
2023/09/23 05:43:26;;;;;;;5.95;1.00;;;;;;;11.64;95.53;100299.72;5124709;27;20034;-75
2023/09/23 05:46:30;;;;;;;;;;;;;;;11.82;94.50;100309.09;5120615;27;20034;-77
2023/09/23 05:49:33;;;;;;;;;;;;;;;11.88;93.68;100312.31;5135978;27;19917;-78
2023/09/23 05:52:42;;;;;;;5.22;1.40;;;;;;;11.97;92.83;100325.69;5135464;27;20419;-77
2023/09/23 05:55:45;;;;;;;6.35;1.17;;;;;;;11.84;94.44;100322.97;5135009;27;20046;-77
2023/09/23 05:58:50;;;;;;;5.03;1.27;;;;;;;11.89;93.84;100327.09;5130290;27;20154;-77
2023/09/23 06:01:53;;;;;;;7.28;1.58;;;;;;;12.08;92.93;100333.72;5118050;27;20154;-75
2023/09/23 06:04:56;;;;;;;;;;;;;;;12.17;92.44;100345.44;5118859;27;20039;-76
2023/09/23 06:07:59;;;;;;;2.58;0.90;;;;;;;12.16;92.34;100351.63;5133752;27;19946;-75
2023/09/23 06:11:06;;;;;;;5.00;0.82;;;;;;;12.28;92.57;100352.63;5133391;27;20428;-72
2023/09/23 06:14:11;;;;;;;6.03;0.75;;;;;;;12.23;93.98;100366.03;5134749;27;20054;-74
2023/09/23 06:17:15;;;;;;;4.38;1.38;;;;;;;12.23;93.37;100366.03;5133807;27;20046;-72
2023/09/23 06:20:18;;;;;;;8.00;0.90;;;;;;;12.44;92.70;100368.25;5134970;27;20111;-72
2023/09/23 06:23:22;;;;;;;7.97;1.65;;;;;;;12.47;91.96;100373.28;5130195;27;20115;-75
2023/09/23 06:26:25;;;;;;;4.57;1.20;;;;;;;12.29;90.13;100381.38;5113967;28;20596;-78
2023/09/23 06:29:30;;;;;;;3.15;0.88;;;;;;;12.41;87.14;100373.69;5111946;28;20419;-75
2023/09/23 06:32:33;;;;;;;6.60;0.82;;;;;;;12.36;86.78;100384.47;5112371;28;20054;-73
2023/09/23 06:35:36;;;;;;;3.03;0.80;;;;;;;12.61;86.89;100385.56;5113078;28;20066;-70
2023/09/23 06:38:40;;;;;;;5.07;0.90;;;;;;;12.73;86.73;100390.88;5123738;27;20051;-71
2023/09/23 06:41:45;;;;;;;4.68;1.17;;;;;;;12.68;84.60;100403.44;5113230;28;20074;-74
2023/09/23 06:44:48;;;;;;;4.65;1.00;;;;;;;12.65;84.81;100403.63;5125132;27;20377;-73
2023/09/23 06:47:51;;;;;;;2.80;0.88;;;;;;;12.68;86.03;100402.59;5122026;27;20050;-73
2023/09/23 06:51:02;;;;;;;3.85;0.95;;;;;;;12.82;83.20;100409.59;5124588;27;20461;-73
2023/09/23 06:54:07;;;;;;;3.65;0.82;;;;;;;12.93;83.83;100418.47;5116312;27;20092;-73
2023/09/23 06:57:10;;;;;;;2.40;0.68;;;;;;;13.03;81.92;100418.72;5117435;27;20527;-74
2023/09/23 07:00:14;;;;;;;4.45;1.10;;;;;;;13.09;79.94;100422.75;5131105;27;20042;-74
2023/09/23 07:03:17;;;;;;;3.05;1.17;;;;;;;13.16;81.62;100424.84;5132781;27;20050;-74
2023/09/23 07:06:20;;;;;;;5.43;0.80;;;;;;;13.12;79.59;100430.41;5133421;27;20481;-73
2023/09/23 07:09:24;;;;;;;4.18;0.90;;;;;;;13.36;80.85;100431.47;5133514;27;20099;-73
2023/09/23 07:12:28;;;;;;;3.78;0.80;;;;;;;13.33;79.37;100436.09;5131532;27;20130;-71
2023/09/23 07:15:40;;;;;;;6.78;1.90;;;;;;;13.06;79.65;100442.16;5132870;27;20484;-75
2023/09/23 07:18:44;;;;;;;5.57;1.08;;;;;;;12.98;80.48;100442.63;5133315;27;20061;-72
2023/09/23 07:21:47;;;;;;;5.55;0.95;;;;;;;13.02;79.33;100443.28;5131102;27;20070;-75
2023/09/23 07:24:50;;;;;;;4.03;0.90;;;;;;;12.94;80.15;100456.88;5133182;27;20072;-74
2023/09/23 07:27:54;;;;;;;2.50;0.80;;;;;;;12.98;79.69;100457.53;5133280;27;20138;-75
2023/09/23 07:30:57;;;;;;;4.72;0.80;;;;;;;12.95;79.32;100469.06;5133149;27;20212;-75
2023/09/23 07:34:00;;;;;;;5.78;0.88;;;;;;;12.99;79.41;100470.56;5133081;27;20046;-73
2023/09/23 07:37:06;;;;;;;4.90;1.25;;;;;;;13.02;79.87;100480.03;5133163;27;20041;-74
2023/09/23 07:41:02;;;;;;;2.72;0.80;;;;;;;12.82;78.30;100478.66;5133266;27;20465;-74
2023/09/23 07:44:06;;;;;;;3.95;0.82;;;;;;;12.74;79.35;100492.25;5131721;27;20091;-73
2023/09/23 07:47:09;;;;;;;5.22;0.70;;;;;;;12.73;78.21;100495.81;5132851;27;20410;-74
2023/09/23 07:50:13;;;;;;;5.32;1.60;;;;;;;12.81;78.99;100497.97;5132662;27;20057;-74
2023/09/23 07:53:17;;;;;;;5.63;1.40;;;;;;;12.97;80.04;100503.09;5132638;27;20370;-74
2023/09/23 07:56:20;;;;;;;3.42;1.15;;;;;;;13.08;79.59;100505.03;5132529;27;20517;-73
2023/09/23 07:59:23;;;;;;;;;;;;;;;13.28;79.07;100512.53;5132453;27;20058;-73
2023/09/23 08:02:27;;;;;;;4.15;0.95;;;;;;;13.30;78.16;100522.94;5132428;27;20017;-73
2023/09/23 08:05:32;;;;;;;5.07;1.17;;;;;;;13.20;77.27;100527.91;5132548;27;20087;-73
2023/09/23 08:08:35;;;;;;;8.20;1.00;;;;;;;13.26;77.47;100531.00;5132311;27;20096;-73
2023/09/23 08:11:38;;;;;;;7.03;1.35;;;;;;;13.47;76.17;100534.06;5132207;27;20078;-73
2023/09/23 08:14:42;;;;;;;3.58;0.80;;;;;;;13.52;74.72;100546.88;5130972;27;20049;-73
2023/09/23 08:17:45;;;;;;;4.50;1.15;;;;;;;13.44;74.37;100543.94;5132197;27;20042;-73
2023/09/23 08:20:56;;;;;;;4.28;1.20;;;;;;;13.20;73.59;100556.78;5132255;27;20046;-72
2023/09/23 08:23:59;;;;;;;3.42;0.75;;;;;;;13.29;74.51;100556.22;5131949;27;20037;-72
2023/09/23 08:27:03;;;;;;;4.20;0.90;;;;;;;13.38;73.52;100554.81;5132192;27;20042;-72
2023/09/23 08:30:11;;;;;;;4.03;1.00;;;;;;;13.05;74.39;100569.09;5131872;27;20041;-72
2023/09/23 08:33:15;;;;;;;4.18;1.20;;;;;;;13.19;74.97;100555.94;5131231;27;20107;-72
2023/09/23 08:36:19;;;;;;;3.40;0.80;;;;;;;13.35;74.69;100568.97;5131797;27;20079;-72
2023/09/23 08:39:23;;;;;;;5.05;1.38;;;;;;;13.41;74.19;100565.13;5131255;28;20041;-72
2023/09/23 08:42:27;;;;;;;3.40;1.02;;;;;;;13.19;74.98;100558.56;5131943;28;20050;-72
2023/09/23 08:45:31;;;;;;;7.60;1.35;;;;;;;13.21;74.01;100577.69;5132073;28;20678;-71
2023/09/23 08:48:35;;;;;;;6.45;1.33;;;;;;;13.10;75.10;100581.94;5131894;28;20072;-71
2023/09/23 08:51:40;;;;;;;6.20;1.48;;;;;;;13.08;74.53;100584.66;5131865;28;20037;-70
2023/09/23 08:54:50;;;;;;;4.10;1.40;;;;;;;13.17;74.59;100586.69;5131884;28;20038;-69
2023/09/23 08:57:54;;;;;;;5.53;0.75;;;;;;;13.28;74.84;100588.69;5131864;28;20127;-71
2023/09/23 09:00:57;;;;;;;7.68;0.88;;;;;;;13.21;74.34;100588.22;5131782;28;20099;-69
2023/09/23 09:04:00;;;;;;;3.08;0.73;;;;;;;13.33;73.95;100573.47;5131985;28;20468;-69
2023/09/23 09:07:05;;;;;;;7.75;1.42;;;;;;;13.44;73.85;100575.44;5131986;28;20111;-71
2023/09/23 09:10:09;;;;;;;3.83;1.38;;;;;;;13.54;72.63;100597.56;5132445;28;20411;-73
2023/09/23 09:13:13;;;;;;;;;;;;;;;13.54;73.16;100587.03;5132037;28;20050;-70
2023/09/23 09:16:18;;;;;;;6.88;1.13;;;;;;;13.53;72.97;100580.13;5130599;28;19941;-71
2023/09/23 09:19:21;;;;;;;7.65;1.00;;;;;;;13.75;73.10;100574.31;5130882;28;20506;-71
2023/09/23 09:22:24;;;;;;;4.50;2.20;;;;;;;13.85;72.43;100575.41;5131698;28;20050;-72
2023/09/23 09:25:30;;;;;;;3.03;0.82;;;;;;;13.96;71.98;100582.59;5131791;28;20046;-72
2023/09/23 09:28:34;;;;;;;4.78;1.27;;;;;;;13.89;70.50;100579.53;5131491;28;20382;-71
2023/09/23 09:31:38;;;;;;;4.05;1.48;;;;;;;13.96;71.13;100574.69;5131556;28;20053;-71
2023/09/23 09:34:46;;;;;;;5.45;1.10;;;;;;;14.02;70.29;100581.34;5131315;28;20046;-71
2023/09/23 09:37:49;;;;;;;8.75;1.35;;;;;;;14.02;69.58;100592.69;5131454;28;20045;-71
2023/09/23 09:41:04;;;;;;;5.50;1.17;;;;;;;14.03;70.33;100594.38;5131375;28;20133;-71
2023/09/23 09:44:08;;;;;;;3.83;1.17;;;;;;;14.10;69.45;100600.94;5133651;27;20513;-72
2023/09/23 09:47:13;;;;;;;7.63;1.30;;;;;;;14.25;69.38;100611.38;5135227;27;20165;-71
2023/09/23 09:50:16;;;;;;;4.07;1.10;;;;;;;14.17;68.58;100604.84;5134389;27;20177;-72
2023/09/23 09:53:21;;;;;;;4.18;0.88;;;;;;;14.24;69.12;100604.44;5134870;27;20111;-72
2023/09/23 09:56:25;;;;;;;4.72;1.23;;;;;;;14.24;69.67;100596.56;5135311;27;20107;-71
2023/09/23 09:59:31;;;;;;;5.82;1.00;;;;;;;14.21;69.33;100607.28;5134983;27;20104;-72
2023/09/23 10:02:37;;;;;;;4.88;1.08;;;;;;;14.12;69.84;100599.03;5133782;27;20054;-72
2023/09/23 10:05:44;;;;;;;4.85;1.05;;;;;;;14.23;69.55;100594.84;5114223;27;20557;-73
2023/09/23 10:08:51;;;;;;;3.20;0.75;;;;;;;14.31;68.95;100605.72;5122320;27;20120;-70
2023/09/23 10:11:56;;;;;;;2.55;0.90;;;;;;;14.25;69.05;100585.09;5120971;27;20570;-71
2023/09/23 10:15:01;;;;;;;5.15;1.08;;;;;;;14.30;68.33;100601.41;5121136;27;20357;-71
2023/09/23 10:18:14;;;;;;;4.05;0.85;;;;;;;14.15;69.03;100593.56;5122064;27;20107;-72
2023/09/23 10:21:25;;;;;;;5.93;1.15;;;;;;;14.08;68.06;100610.72;5113706;28;20050;-72
2023/09/23 10:24:32;;;;;;;3.67;1.10;;;;;;;14.25;68.30;100608.75;5112952;28;20045;-72
2023/09/23 10:27:38;;;;;;;6.03;1.40;;;;;;;14.16;68.71;100618.09;5113850;28;20140;-72
2023/09/23 10:30:41;;;;;;;3.88;1.05;;;;;;;14.40;67.99;100621.72;5113633;28;20115;-72
2023/09/23 10:33:45;;;;;;;5.03;1.48;;;;;;;14.39;67.75;100611.31;5113496;28;20403;-73
2023/09/23 10:36:49;;;;;;;3.22;1.00;;;;;;;14.52;67.38;100612.22;5113163;28;20050;-73
2023/09/23 10:39:52;;;;;;;5.28;1.10;;;;;;;14.63;67.22;100619.38;5113528;28;20467;-73
2023/09/23 10:43:03;;;;;;;4.15;1.10;;;;;;;14.56;65.66;100610.22;5112734;28;20046;-72
2023/09/23 10:46:07;;;;;;;4.75;1.25;;;;;;;14.60;65.70;100611.69;5113290;28;20088;-73
2023/09/23 10:49:11;;;;;;;4.20;1.15;;;;;;;14.44;65.62;100611.84;5113516;28;20457;-73
2023/09/23 10:52:16;;;;;;;5.05;1.25;;;;;;;14.47;65.45;100616.06;5113110;28;20078;-73
2023/09/23 10:55:20;;;;;;;4.50;1.17;;;;;;;14.61;64.68;100608.97;5112405;28;20070;-72
2023/09/23 10:58:23;;;;;;;4.75;1.25;;;;;;;14.72;65.34;100624.00;5113329;28;20042;-72
2023/09/23 11:01:27;;;;;;;3.67;1.48;;;;;;;14.87;65.64;100622.13;5113360;28;20045;-73
2023/09/23 11:04:31;;;;;;;4.30;1.25;;;;;;;14.74;65.38;100623.91;5112820;28;20176;-73
2023/09/23 11:07:34;;;;;;;4.63;1.05;;;;;;;14.79;65.05;100627.06;5113102;28;20108;-73
2023/09/23 11:10:40;;;;;;;3.70;1.27;;;;;;;14.89;65.17;100622.84;5112696;28;20219;-74
2023/09/23 11:13:43;;;;;;;7.05;1.70;;;;;;;15.17;65.14;100632.31;5116416;27;20419;-73
2023/09/23 11:16:46;;;;;;;5.82;2.08;;;;;;;15.31;64.00;100620.81;5110517;28;20097;-68
2023/09/23 11:19:58;;;;;;;6.10;1.52;;;;;;;15.39;62.94;100626.41;5111150;28;20042;-68
2023/09/23 11:23:05;;;;;;;4.80;1.70;;;;;;;15.55;62.36;100632.25;5112404;28;20053;-67
2023/09/23 11:26:15;;;;;;;4.72;1.40;;;;;;;15.54;61.12;100632.38;5112723;28;20045;-67
2023/09/23 11:29:43;;;;;;;4.70;1.60;;;;;;;15.58;60.81;100616.22;5112637;28;20062;-72
2023/09/23 11:32:50;;;;;;;3.72;1.10;;;;;;;15.86;60.55;100647.69;5111524;28;20042;-69
2023/09/23 11:35:54;;;;;;;4.22;1.70;;;;;;;15.74;60.79;100646.78;5112283;28;20054;-73
2023/09/23 11:39:00;;;;;;;7.47;1.50;;;;;;;15.90;60.83;100649.16;5112009;28;20050;-73
2023/09/23 11:42:04;;;;;;;6.28;1.45;;;;;;;16.21;59.78;100653.03;5112131;28;20042;-73
2023/09/23 11:45:09;;;;;;;5.15;1.60;;;;;;;16.32;59.42;100642.53;5111258;28;20139;-73
2023/09/23 11:48:12;;;;;;;5.45;1.40;;;;;;;16.24;59.31;100650.16;5111971;28;20089;-73
2023/09/23 11:51:19;;;;;;;5.40;1.33;;;;;;;16.02;59.54;100651.75;5112233;28;20038;-72
2023/09/23 11:54:24;;;;;;;5.35;1.67;;;;;;;16.00;58.99;100645.72;5112077;28;20095;-73
2023/09/23 11:57:27;;;;;;;7.18;1.73;;;;;;;16.20;59.26;100640.78;5111262;28;20059;-72
2023/09/23 12:00:33;;;;;;;5.72;1.48;;;;;;;16.23;57.71;100645.84;5112110;28;20037;-72
2023/09/23 12:03:36;;;;;;;3.03;1.40;;;;;;;16.24;57.70;100655.44;5111152;28;20136;-72
2023/09/23 12:06:41;;;;;;;4.88;1.60;;;;;;;16.36;57.89;100651.03;5110325;28;20089;-72
2023/09/23 12:09:45;;;;;;;4.70;1.50;;;;;;;16.69;57.59;100663.53;5111654;28;20131;-72
2023/09/23 12:12:48;;;;;;;4.93;1.90;;;;;;;16.92;56.64;100653.88;5111751;28;20086;-70
2023/09/23 12:15:52;;;;;;;10.07;4.28;;;;;;;16.83;56.15;100655.41;5111698;28;20104;-71
2023/09/23 12:18:56;;;;;;;4.93;1.92;;;;;;;17.39;55.07;100660.75;5111837;28;20506;-72
2023/09/23 12:21:59;;;;;;;8.95;1.75;;;;;;;17.16;54.80;100664.34;5111480;28;20088;-73
2023/09/23 12:25:06;;;;;;;4.85;1.45;;;;;;;17.36;53.94;100673.38;5111709;28;20552;-73
2023/09/23 12:28:09;;;;;;;3.78;1.52;;;;;;;17.33;54.23;100685.03;5111147;28;20046;-74
2023/09/23 12:31:13;;;;;;;7.97;1.75;;;;;;;17.56;54.46;100671.81;5111693;28;20077;-74
2023/09/23 12:34:16;;;;;;;6.38;1.70;;;;;;;18.24;52.34;100665.41;5111472;28;20122;-72
2023/09/23 12:37:19;;;;;;;5.22;1.45;;;;;;;18.31;52.31;100674.56;5110354;28;20046;-73
2023/09/23 12:40:23;;;;;;;4.57;1.60;;;;;;;18.80;50.76;100675.78;5111712;28;20043;-73
2023/09/23 12:43:26;;;;;;;5.47;1.90;;;;;;;18.67;50.18;100666.31;5111331;28;20400;-72
2023/09/23 12:46:29;;;;;;;5.85;2.08;;;;;;;18.64;50.33;100678.00;5110990;28;20043;-73
2023/09/23 12:49:33;;;;;;;4.30;1.70;;;;;;;18.76;50.40;100677.00;5111265;28;20104;-79
2023/09/23 12:52:37;;;;;;;4.30;1.50;;;;;;;18.76;49.39;100676.13;5111293;28;20087;-69
2023/09/23 12:55:42;;;;;;;8.10;1.77;;;;;;;18.55;50.92;100678.75;5111446;28;20117;-75
2023/09/23 12:58:45;;;;;;;4.32;1.30;;;;;;;18.11;51.43;100692.03;5111055;28;20070;-70
2023/09/23 13:01:50;;;;;;;5.47;1.80;;;;;;;19.01;49.92;100683.69;5110906;28;20091;-70
2023/09/23 13:04:53;;;;;;;4.85;1.75;;;;;;;20.55;46.10;100684.31;5111441;28;20073;-67
2023/09/23 13:07:56;;;;;;;5.18;1.58;;;;;;;20.43;45.35;100688.06;5110144;28;20095;-72
2023/09/23 13:11:00;;;;;;;8.07;1.70;;;;;;;19.05;48.20;100686.94;5111016;28;20075;-72
2023/09/23 13:14:04;;;;;;;4.05;1.27;;;;;;;20.99;43.96;100684.66;5111064;28;20130;-72
2023/09/23 13:17:10;;;;;;;3.72;1.30;;;;;;;19.42;47.02;100689.06;5111349;28;20199;-72
2023/09/23 13:20:13;;;;;;;5.97;1.90;;;;;;;22.63;39.01;100689.25;5115511;28;20120;-72
2023/09/23 13:23:17;;;;;;;6.18;1.80;;;;;;;24.60;35.62;100691.75;5115273;28;20402;-72
2023/09/23 13:26:24;;;;;;;5.20;1.90;;;;;;;26.62;32.72;100684.94;5114954;28;20043;-72
2023/09/23 13:29:28;;;;;;;4.53;1.77;;;;;;;27.76;30.28;100703.50;5115020;28;20042;-72
2023/09/23 13:32:32;;;;;;;4.07;1.42;;;;;;;26.08;32.46;100695.72;5113989;28;20042;-72
2023/09/23 13:35:41;;;;;;;3.67;1.55;;;;;;;26.34;31.56;100708.75;5114911;28;20046;-72
2023/09/23 13:38:46;;;;;;;6.10;1.70;;;;;;;26.20;31.99;100705.03;5114853;28;20050;-72
2023/09/23 13:41:49;;;;;;;5.63;2.10;;;;;;;26.49;30.86;100700.81;5114923;28;20105;-72
2023/09/23 13:44:53;;;;;;;4.88;1.73;;;;;;;25.09;33.95;100710.44;5114829;28;20506;-72
2023/09/23 13:47:56;;;;;;;3.22;1.40;;;;;;;23.66;35.91;100703.56;5114716;28;20089;-72
2023/09/23 13:51:00;;;;;;;6.22;1.77;;;;;;;23.15;37.28;100705.31;5114676;28;20097;-72
2023/09/23 13:54:04;;;;;;;4.18;1.35;;;;;;;26.19;33.08;100700.66;5114593;28;20120;-72
2023/09/23 13:57:07;;;;;;;3.45;1.50;;;;;;;25.29;33.72;100711.75;5114910;28;20096;-73
2023/09/23 14:00:12;;;;;;;4.10;1.63;;;;;;;26.10;32.51;100711.59;5114671;28;20093;-72
2023/09/23 14:03:19;;;;;;;4.88;1.98;;;;;;;28.19;29.06;100709.00;5114974;28;20043;-73
2023/09/23 14:06:23;;;;;;;5.90;1.83;;;;;;;26.05;31.64;100703.28;5114326;28;20065;-73
2023/09/23 14:09:32;;;;;;;4.45;1.83;;;;;;;27.37;30.03;100696.63;5113892;28;20058;-73
2023/09/23 14:12:35;;;;;;;5.50;3.17;;;;;;;29.82;26.96;100692.59;5114123;28;20061;-73
2023/09/23 14:15:39;;;;;;;7.28;1.92;;;;;;;29.78;27.48;100702.13;5114138;28;20092;-75
2023/09/23 14:18:43;;;;;;;6.07;2.80;;;;;;;24.07;34.61;100709.06;5114378;28;20046;-71
2023/09/23 14:21:54;;;;;;;5.70;2.58;;;;;;;25.81;32.66;100707.75;5114245;28;20043;-72
2023/09/23 14:25:02;;;;;;;4.47;2.05;;;;;;;29.44;27.29;100713.75;5114195;28;20042;-71
2023/09/23 14:28:07;;;;;;;4.68;3.00;;;;;;;29.09;27.58;100707.56;5114055;28;20046;-72
2023/09/23 14:31:13;;;;;;;4.70;3.33;;;;;;;28.81;27.99;100711.03;5113127;28;20062;-72
2023/09/23 14:34:19;;;;;;;3.65;1.85;;;;;;;20.56;41.36;100733.81;5113589;28;20437;-72
2023/09/23 14:37:29;;;;;;;7.72;2.85;;;;;;;19.60;44.40;100726.41;5114062;28;20147;-72